createdAt,value
2019-02-19T00:04:05.712Z,5.6
2019-02-19T00:19:18.165Z,5.5
2019-02-19T00:34:30.563Z,5.4
2019-02-19T00:49:42.866Z,5.2
2019-02-19T01:04:53.120Z,5.2
2019-02-19T01:20:07.644Z,5.2
2019-02-19T01:35:19.777Z,5
2019-02-19T01:50:32.006Z,4.9
2019-02-19T02:05:36.594Z,4.7
2019-02-19T02:20:56.259Z,4.7
2019-02-19T02:36:08.396Z,4.5
2019-02-19T02:51:20.761Z,4.4
2019-02-19T03:06:32.522Z,4.4
2019-02-19T03:21:44.499Z,4.3
2019-02-19T03:36:56.474Z,4.2
2019-02-19T03:52:08.433Z,4.1
2019-02-19T04:07:20.350Z,4
2019-02-19T04:22:27.600Z,3.8
2019-02-19T04:37:44.082Z,3.8
2019-02-19T04:52:55.975Z,3.7
2019-02-19T05:08:07.688Z,3.4
2019-02-19T05:23:09.182Z,3.4
2019-02-19T05:38:31.096Z,3.4
2019-02-19T05:53:44.842Z,3.4
2019-02-19T06:08:54.399Z,3.2
2019-02-19T06:24:06.198Z,3.4
2019-02-19T06:39:15.980Z,3.6
2019-02-19T06:54:29.774Z,3.9
2019-02-19T07:09:41.733Z,4.3
2019-02-19T07:24:53.803Z,4.7
2019-02-19T07:40:00.692Z,5.2
2019-02-19T07:55:18.635Z,5.6
2019-02-19T08:10:31.103Z,6.1
2019-02-19T08:25:43.958Z,6.8
2019-02-19T08:40:52.859Z,7.5
2019-02-19T08:56:10.508Z,8.6
2019-02-19T09:11:24.503Z,10.2
2019-02-19T09:26:38.919Z,11.1
2019-02-19T09:41:44.078Z,11.7
2019-02-19T09:57:08.754Z,12.7
2019-02-19T10:12:24.041Z,13.1
2019-02-19T10:27:39.545Z,13.5
2019-02-19T10:42:55.140Z,13.3
2019-02-19T10:58:06.948Z,13.3
2019-02-19T11:13:26.052Z,13.4
2019-02-19T11:28:41.565Z,13.5
2019-02-19T11:43:57.031Z,12.9
2019-02-19T11:59:01.355Z,12
2019-02-19T12:14:27.313Z,11.5
2019-02-19T12:29:41.481Z,11.1
2019-02-19T12:44:55.952Z,10.7
2019-02-19T13:00:10.898Z,10.3
2019-02-19T13:15:19.531Z,9.9
2019-02-19T13:30:38.440Z,9.6
2019-02-19T13:45:52.409Z,9.4
2019-02-19T14:01:06.793Z,9.3
2019-02-19T14:16:08.569Z,9
2019-02-19T14:31:33.659Z,8.6
2019-02-19T14:46:47.207Z,8.5
2019-02-19T15:02:00.763Z,8.5
2019-02-19T15:17:14.270Z,8.5
2019-02-19T15:32:23.912Z,8.5
2019-02-19T15:47:41.454Z,9.6
2019-02-19T16:02:56.186Z,9.5
2019-02-19T16:18:10.133Z,9.1
2019-02-19T16:33:23.806Z,8.4
2019-02-19T16:48:37.164Z,7.9
2019-02-19T17:03:50.405Z,7.6
2019-02-19T17:19:03.567Z,7.4
2019-02-19T17:34:16.689Z,7.3
2019-02-19T17:49:24.287Z,7.1
2019-02-19T18:04:42.716Z,7.1
2019-02-19T18:19:55.721Z,7
2019-02-19T18:35:08.671Z,6.9
2019-02-19T18:50:21.583Z,7
2019-02-19T19:05:34.574Z,7.1
2019-02-19T19:20:47.634Z,7.2
2019-02-19T19:36:00.696Z,7.3
2019-02-19T19:51:17.061Z,7.4
2019-02-19T20:06:21.820Z,7.3
2019-02-19T20:21:40.041Z,7.6
2019-02-19T20:36:53.283Z,7.5
2019-02-19T20:52:06.433Z,7.5
2019-02-19T21:07:19.665Z,7.6
2019-02-19T21:22:32.841Z,7.6
2019-02-19T21:37:46.635Z,7.6
2019-02-19T21:52:59.311Z,7.6
2019-02-19T22:08:12.559Z,7.6
2019-02-19T22:23:20.759Z,7.5
2019-02-19T22:38:38.843Z,7.4
2019-02-19T22:53:52.067Z,7.3
2019-02-19T23:09:05.092Z,7.2
2019-02-19T23:24:06.469Z,7.1
2019-02-19T23:39:31.111Z,6.9
2019-02-19T23:54:44.052Z,6.9
